Time;durP1;ratioP1;P1;durP2;ratioP2;P2;SDS_P1;SDS_P2;PMS_P1;PMS_P2;Temp;Humidity;BMP_temperature;BMP_pressure;BME280_temperature;BME280_humidity;BME280_pressure;Samples;Min_cycle;Max_cycle;Signal;HPM_P1;HPM_P2
2023/08/27 00:00:08;;;;;;;5.90;4.25;;;;;;;17.73;65.31;100473.72;678361;29;1014;-78
2023/08/27 00:00:34;;;;;;;6.00;3.90;;;;;;;17.68;65.38;100459.66;684394;28;1347;-78
2023/08/27 00:00:54;;;;;;;5.95;4.07;;;;;;;17.61;65.18;100447.38;681283;29;950;-78
2023/08/27 00:01:15;;;;;;;6.20;4.47;;;;;;;17.62;65.44;100454.41;689385;28;1368;-78
2023/08/27 00:01:36;;;;;;;6.35;4.47;;;;;;;17.73;65.40;100481.63;693404;28;1090;-78
2023/08/27 00:01:57;;;;;;;5.97;4.47;;;;;;;17.67;65.38;100463.19;682714;28;1238;-79
2023/08/27 00:02:17;;;;;;;5.43;4.23;;;;;;;17.60;65.43;100454.44;682326;29;1978;-78
2023/08/27 00:02:38;;;;;;;6.57;4.57;;;;;;;17.62;65.35;100459.69;680203;29;1266;-78
2023/08/27 00:02:58;;;;;;;6.43;4.53;;;;;;;17.65;65.20;100468.47;682868;29;985;-78
2023/08/27 00:03:19;;;;;;;5.85;4.32;;;;;;;17.68;65.40;100472.84;687151;28;1656;-78
2023/08/27 00:03:40;;;;;;;6.07;4.40;;;;;;;17.62;65.36;100459.69;690514;28;1146;-78
2023/08/27 00:04:01;;;;;;;7.20;4.50;;;;;;;17.56;65.35;100454.47;682655;29;1141;-79
2023/08/27 00:04:21;;;;;;;7.35;4.65;;;;;;;17.74;65.51;100485.13;681830;28;1521;-78
2023/08/27 00:04:42;;;;;;;7.13;4.60;;;;;;;17.60;65.37;100464.09;688058;28;1047;-78
2023/08/27 00:05:04;;;;;;;6.30;4.40;;;;;;;17.62;65.41;100459.69;690631;28;948;-78
2023/08/27 00:05:24;;;;;;;6.15;4.45;;;;;;;17.64;65.40;100464.09;685804;28;1227;-78
2023/08/27 00:05:45;;;;;;;5.50;4.32;;;;;;;17.60;65.39;100458.84;685145;28;1084;-78
2023/08/27 00:06:06;;;;;;;6.20;4.40;;;;;;;17.59;65.54;100455.34;687925;28;1021;-79
2023/08/27 00:06:27;;;;;;;8.75;4.40;;;;;;;17.66;65.65;100469.34;681780;28;1725;-78
2023/08/27 00:06:47;;;;;;;8.50;4.13;;;;;;;17.65;65.51;100465.81;685305;28;1233;-78
2023/08/27 00:07:08;;;;;;;7.70;4.03;;;;;;;17.58;65.47;100447.41;682690;28;1057;-79
2023/08/27 00:07:29;;;;;;;5.73;4.10;;;;;;;17.63;65.49;100458.81;684825;28;1800;-78
2023/08/27 00:07:50;;;;;;;5.45;4.25;;;;;;;17.62;65.55;100460.59;687944;28;1379;-78
2023/08/27 00:08:11;;;;;;;6.45;4.60;;;;;;;17.56;65.54;100443.94;685212;28;1071;-79
2023/08/27 00:08:31;;;;;;;5.47;4.32;;;;;;;17.59;65.41;100439.50;684275;28;1091;-79
2023/08/27 00:08:52;;;;;;;5.43;4.30;;;;;;;17.56;65.53;100438.66;685363;28;1050;-79
2023/08/27 00:09:13;;;;;;;4.40;4.00;;;;;;;17.64;65.33;100457.94;685440;28;1056;-79
2023/08/27 00:09:33;;;;;;;4.70;4.03;;;;;;;17.50;65.43;100429.00;684602;28;1253;-79
2023/08/27 00:09:54;;;;;;;5.25;4.00;;;;;;;17.58;65.41;100436.88;682437;29;1212;-79
2023/08/27 00:10:15;;;;;;;6.00;4.00;;;;;;;17.49;65.44;100433.41;682740;29;1315;-79
2023/08/27 00:10:36;;;;;;;5.93;3.90;;;;;;;17.59;65.57;100435.97;682569;29;1199;-79
2023/08/27 00:11:00;;;;;;;5.90;3.80;;;;;;;17.62;65.28;100443.88;682645;29;924;-79
2023/08/27 00:11:20;;;;;;;5.90;4.00;;;;;;;17.57;65.56;100437.75;677355;28;1255;-79
2023/08/27 00:11:42;;;;;;;5.93;4.13;;;;;;;17.46;65.35;100412.31;679909;29;1244;-79
2023/08/27 00:12:03;;;;;;;5.80;4.22;;;;;;;17.57;65.38;100435.13;681668;29;1522;-79
2023/08/27 00:12:24;;;;;;;6.63;4.25;;;;;;;17.46;65.46;100420.22;682040;29;1662;-79
2023/08/27 00:12:45;;;;;;;6.40;4.10;;;;;;;17.58;65.51;100440.38;684392;28;1081;-79
2023/08/27 00:13:05;;;;;;;6.20;4.00;;;;;;;17.58;65.25;100439.50;682731;28;1385;-79
2023/08/27 00:13:26;;;;;;;6.05;4.03;;;;;;;17.52;65.53;100422.81;685104;28;1226;-79
2023/08/27 00:13:47;;;;;;;5.57;4.07;;;;;;;17.48;65.34;100421.09;687416;28;1539;-78
2023/08/27 00:14:08;;;;;;;8.50;4.00;;;;;;;17.52;65.50;100425.47;685253;28;1122;-78
2023/08/27 00:14:28;;;;;;;8.40;4.07;;;;;;;17.56;65.33;100425.47;685747;28;1407;-77
2023/08/27 00:14:49;;;;;;;8.18;3.97;;;;;;;17.54;65.35;100431.59;687930;28;1138;-78
2023/08/27 00:15:10;;;;;;;6.20;4.10;;;;;;;17.46;65.39;100407.03;686494;28;1164;-78
2023/08/27 00:15:31;;;;;;;5.90;4.20;;;;;;;17.43;65.36;100406.16;683408;28;1344;-79
2023/08/27 00:15:51;;;;;;;6.10;4.20;;;;;;;17.44;65.63;100406.16;684284;28;1535;-78
2023/08/27 00:16:12;;;;;;;6.30;4.00;;;;;;;17.47;65.53;100408.81;682670;29;1385;-77
2023/08/27 00:16:35;;;;;;;6.45;3.72;;;;;;;17.41;65.34;100400.94;682781;29;1236;-78
2023/08/27 00:16:56;;;;;;;7.45;4.03;;;;;;;17.45;65.54;100405.28;687889;28;1249;-77
2023/08/27 00:17:17;;;;;;;8.23;4.25;;;;;;;17.47;65.36;100408.81;689455;28;1804;-77
2023/08/27 00:17:38;;;;;;;9.80;4.53;;;;;;;17.46;65.55;100411.44;685877;28;1182;-78
2023/08/27 00:17:59;;;;;;;8.63;4.35;;;;;;;17.34;65.61;100386.03;682687;28;1170;-78
2023/08/27 00:18:19;;;;;;;6.28;4.28;;;;;;;17.38;65.63;100393.91;682715;28;1406;-78
2023/08/27 00:18:40;;;;;;;5.97;4.20;;;;;;;17.38;65.79;100391.25;682704;29;1196;-78
2023/08/27 00:19:03;;;;;;;6.30;4.10;;;;;;;17.43;65.49;100407.06;680154;29;1313;-78
2023/08/27 00:19:23;;;;;;;7.10;4.07;;;;;;;17.34;65.79;100386.03;679986;29;1531;-79
2023/08/27 00:19:44;;;;;;;10.25;4.10;;;;;;;17.44;65.82;100397.41;683971;28;1138;-79
2023/08/27 00:20:10;;;;;;;11.43;4.30;;;;;;;17.34;65.57;100383.38;686468;28;1286;-78
2023/08/27 00:20:33;;;;;;;9.98;4.10;;;;;;;17.37;65.86;100386.00;684236;28;1921;-78
2023/08/27 00:20:53;;;;;;;6.15;4.15;;;;;;;17.38;65.63;100393.91;687524;28;1279;-78
2023/08/27 00:21:14;;;;;;;5.72;4.03;;;;;;;17.32;65.56;100383.38;682560;29;994;-79
2023/08/27 00:21:35;;;;;;;5.90;4.20;;;;;;;17.42;65.82;100401.78;684731;28;1708;-79
2023/08/27 00:21:57;;;;;;;5.97;4.22;;;;;;;17.38;65.85;100391.25;684947;28;1448;-79
2023/08/27 00:22:18;;;;;;;5.53;4.28;;;;;;;17.32;65.74;100390.44;687929;28;1973;-78
2023/08/27 00:22:39;;;;;;;5.55;4.15;;;;;;;17.37;65.75;100410.63;685729;28;1346;-79
2023/08/27 00:23:00;;;;;;;5.20;3.85;;;;;;;17.30;65.60;100394.81;682621;28;1247;-79
2023/08/27 00:23:20;;;;;;;6.00;3.80;;;;;;;17.34;65.87;100407.97;682515;29;1191;-79
2023/08/27 00:23:41;;;;;;;5.40;3.80;;;;;;;17.32;65.97;100403.63;683001;28;1409;-79
2023/08/27 00:24:04;;;;;;;5.35;4.10;;;;;;;17.23;65.84;100392.22;682494;29;1315;-78
2023/08/27 00:24:24;;;;;;;4.95;4.10;;;;;;;17.28;65.71;100415.06;679974;29;1144;-78
2023/08/27 00:24:45;;;;;;;6.57;4.57;;;;;;;17.30;65.96;100424.72;685215;28;1101;-78
2023/08/27 00:25:06;;;;;;;6.82;4.70;;;;;;;17.18;65.93;100401.91;682702;28;1388;-78
2023/08/27 00:25:27;;;;;;;8.70;4.70;;;;;;;17.28;65.78;100417.69;679973;29;1017;-79
2023/08/27 00:25:47;;;;;;;7.80;4.30;;;;;;;17.22;65.94;100416.84;677451;29;1890;-78
2023/08/27 00:26:08;;;;;;;7.67;4.10;;;;;;;17.30;65.86;100437.03;682666;29;1075;-79
2023/08/27 00:26:29;;;;;;;6.03;4.10;;;;;;;17.18;65.99;100411.56;680050;29;1040;-79
2023/08/27 00:26:50;;;;;;;5.60;3.92;;;;;;;17.19;65.96;100413.31;684411;28;1545;-78
2023/08/27 00:27:10;;;;;;;5.30;3.83;;;;;;;17.24;66.07;100428.28;689879;28;1141;-78
2023/08/27 00:27:33;;;;;;;5.43;3.80;;;;;;;17.32;66.01;100445.81;690687;28;1074;-78
2023/08/27 00:27:54;;;;;;;5.57;3.90;;;;;;;17.26;66.09;100431.78;682499;28;1125;-78
2023/08/27 00:28:15;;;;;;;5.27;4.10;;;;;;;17.24;66.08;100428.28;685594;28;1813;-79
2023/08/27 00:28:35;;;;;;;5.53;4.20;;;;;;;17.29;65.91;100433.53;679616;29;1216;-78
2023/08/27 00:28:58;;;;;;;5.43;4.28;;;;;;;17.29;65.98;100430.00;677249;29;1200;-79
2023/08/27 00:29:19;;;;;;;10.93;4.45;;;;;;;17.25;65.88;100426.50;681931;29;1392;-78
2023/08/27 00:29:40;;;;;;;11.10;4.32;;;;;;;17.29;66.07;100440.53;683219;28;1290;-79
2023/08/27 00:30:04;;;;;;;11.23;4.15;;;;;;;17.23;66.03;100423.00;685167;28;1033;-79
2023/08/27 00:30:25;;;;;;;5.22;3.63;;;;;;;17.16;65.97;100416.84;690394;28;1557;-79
2023/08/27 00:30:45;;;;;;;4.70;3.70;;;;;;;17.28;66.23;100433.53;686891;28;1306;-78
2023/08/27 00:31:06;;;;;;;4.50;3.63;;;;;;;17.31;66.22;100433.50;682225;29;1079;-79
2023/08/27 00:31:27;;;;;;;6.20;4.00;;;;;;;17.21;66.05;100412.44;682537;28;1487;-79
2023/08/27 00:31:48;;;;;;;8.20;4.20;;;;;;;17.26;66.12;100431.78;685793;28;1226;-79
2023/08/27 00:32:09;;;;;;;7.47;4.20;;;;;;;17.33;66.17;100442.28;683072;28;1457;-79
2023/08/27 00:32:31;;;;;;;6.38;4.05;;;;;;;17.20;66.19;100410.66;682348;29;1856;-78
2023/08/27 00:32:52;;;;;;;4.40;4.00;;;;;;;17.24;66.06;100423.00;685033;28;1233;-79
2023/08/27 00:33:13;;;;;;;4.83;3.90;;;;;;;17.26;66.07;100421.22;677051;29;1202;-79
2023/08/27 00:33:33;;;;;;;5.50;4.10;;;;;;;17.31;66.11;100428.22;677033;29;1760;-79
2023/08/27 00:33:54;;;;;;;5.68;4.18;;;;;;;17.24;66.03;100419.47;677337;29;1045;-79
2023/08/27 00:34:14;;;;;;;6.70;4.57;;;;;;;17.21;66.21;100414.19;679426;29;1356;-78
2023/08/27 00:34:35;;;;;;;6.53;4.60;;;;;;;17.25;66.10;100424.75;681772;28;1662;-78
2023/08/27 00:34:56;;;;;;;6.47;4.30;;;;;;;17.14;66.17;100400.16;679578;29;1167;-79
2023/08/27 00:35:17;;;;;;;8.45;4.30;;;;;;;17.19;66.23;100408.03;682107;29;1324;-78
2023/08/27 00:35:37;;;;;;;8.00;4.07;;;;;;;17.12;66.25;100397.53;678889;29;2149;-78
2023/08/27 00:35:58;;;;;;;8.60;4.30;;;;;;;17.23;66.27;100420.38;679922;29;1447;-79
2023/08/27 00:36:19;;;;;;;5.32;3.78;;;;;;;17.30;66.39;100426.47;679614;29;1731;-78
2023/08/27 00:36:40;;;;;;;6.20;4.00;;;;;;;17.21;66.45;100422.09;682381;28;1127;-78
2023/08/27 00:37:01;;;;;;;5.13;3.73;;;;;;;17.15;66.47;100401.91;682328;28;992;-78
2023/08/27 00:37:22;;;;;;;6.13;4.20;;;;;;;17.14;66.59;100405.44;682478;28;1012;-78
2023/08/27 00:37:43;;;;;;;6.10;4.22;;;;;;;17.20;66.48;100413.31;680204;28;1052;-79
2023/08/27 00:38:05;;;;;;;6.95;4.40;;;;;;;17.19;66.45;100414.19;678033;29;1065;-78
2023/08/27 00:38:27;;;;;;;5.72;4.10;;;;;;;17.22;66.42;100414.19;679627;29;1002;-78
2023/08/27 00:38:48;;;;;;;5.47;4.40;;;;;;;17.20;66.64;100409.81;680183;29;1478;-78
2023/08/27 00:39:09;;;;;;;4.97;4.40;;;;;;;17.25;66.64;100416.84;685265;28;1256;-79
2023/08/27 00:39:30;;;;;;;5.70;4.50;;;;;;;17.16;66.64;100403.69;690297;28;1069;-79
2023/08/27 00:39:50;;;;;;;7.38;4.38;;;;;;;17.26;66.66;100421.22;683175;28;1152;-80
2023/08/27 00:40:11;;;;;;;7.80;4.43;;;;;;;17.19;66.65;100403.66;679844;29;991;-78
2023/08/27 00:40:32;;;;;;;7.38;4.40;;;;;;;17.30;66.56;100421.19;679402;29;1707;-78
2023/08/27 00:40:52;;;;;;;5.90;4.30;;;;;;;17.17;66.59;100400.16;680035;29;1751;-79
2023/08/27 00:41:14;;;;;;;5.77;4.20;;;;;;;17.21;66.67;100406.28;681512;29;1323;-78
2023/08/27 00:41:36;;;;;;;5.75;4.18;;;;;;;17.16;66.56;100393.13;679748;29;1451;-78
2023/08/27 00:41:57;;;;;;;6.43;4.20;;;;;;;17.18;66.67;100386.09;679861;29;1759;-78
2023/08/27 00:42:18;;;;;;;6.53;4.70;;;;;;;17.27;66.63;100400.97;676588;29;1974;-79
2023/08/27 00:42:39;;;;;;;6.57;4.50;;;;;;;17.28;66.78;100401.88;680503;29;1033;-78
2023/08/27 00:43:21;;;;;;;7.32;4.70;;;;;;;17.32;66.71;100411.53;684636;28;1146;-78
2023/08/27 00:43:42;;;;;;;7.93;4.28;;;;;;;17.20;66.79;100389.56;678190;29;1026;-77
2023/08/27 00:44:03;;;;;;;6.60;4.18;;;;;;;17.31;66.70;100407.13;682488;28;1466;-78
2023/08/27 00:44:23;;;;;;;6.43;4.22;;;;;;;17.24;66.57;100395.75;682098;29;1100;-78
2023/08/27 00:44:44;;;;;;;5.03;4.00;;;;;;;17.15;66.42;100379.94;685039;28;1209;-78
2023/08/27 00:45:06;;;;;;;4.85;3.85;;;;;;;17.30;66.49;100414.19;682406;29;1032;-78
2023/08/27 00:45:27;;;;;;;4.35;3.65;;;;;;;17.18;66.66;100394.00;682215;29;946;-78
2023/08/27 00:45:48;;;;;;;6.35;3.90;;;;;;;17.09;66.63;100386.13;683440;28;1084;-78
2023/08/27 00:46:10;;;;;;;6.30;3.90;;;;;;;17.14;66.69;100392.25;680640;28;1508;-78
2023/08/27 00:46:31;;;;;;;6.25;3.85;;;;;;;17.24;66.64;100407.19;674319;29;1406;-78
2023/08/27 00:46:52;;;;;;;5.73;3.70;;;;;;;17.17;66.46;100392.25;682223;29;1052;-78
2023/08/27 00:47:13;;;;;;;6.20;3.80;;;;;;;17.21;66.46;100407.19;680116;28;1588;-78
2023/08/27 00:47:38;;;;;;;6.07;3.83;;;;;;;17.11;66.43;100379.94;684819;28;1786;-78
2023/08/27 00:47:59;;;;;;;6.40;4.05;;;;;;;17.11;66.51;100387.00;679552;28;1286;-77
2023/08/27 00:48:20;;;;;;;6.65;4.30;;;;;;;17.09;66.54;100379.09;682326;28;1387;-78
2023/08/27 00:48:41;;;;;;;5.53;4.30;;;;;;;17.11;66.46;100379.09;682009;28;1462;-78
2023/08/27 00:49:02;;;;;;;4.80;4.15;;;;;;;17.14;66.60;100379.06;684834;28;1137;-79
2023/08/27 00:49:23;;;;;;;5.03;4.20;;;;;;;17.19;66.44;100395.75;679745;28;1296;-78
2023/08/27 00:49:44;;;;;;;5.10;4.20;;;;;;;17.12;66.57;100378.19;683467;28;1604;-78
2023/08/27 00:50:08;;;;;;;5.20;4.13;;;;;;;17.04;66.46;100357.16;684958;28;1413;-78
2023/08/27 00:50:30;;;;;;;4.30;3.75;;;;;;;17.14;66.37;100379.06;682359;29;1375;-78
2023/08/27 00:50:51;;;;;;;4.07;3.53;;;;;;;17.09;66.41;100365.06;680572;29;1372;-78
2023/08/27 00:51:12;;;;;;;4.27;3.57;;;;;;;17.05;66.36;100364.19;679996;29;1113;-79
2023/08/27 00:51:35;;;;;;;4.90;3.50;;;;;;;17.04;66.47;100361.56;683800;28;1130;-78
2023/08/27 00:51:59;;;;;;;5.45;3.72;;;;;;;17.03;66.51;100365.06;682176;29;1091;-78
2023/08/27 00:52:20;;;;;;;6.47;3.80;;;;;;;16.96;66.40;100354.56;682031;29;1084;-78
2023/08/27 00:52:42;;;;;;;6.85;4.18;;;;;;;17.10;66.52;100369.44;686005;28;1327;-78
2023/08/27 00:53:03;;;;;;;7.40;4.50;;;;;;;17.07;66.43;100366.78;679424;28;1231;-78
2023/08/27 00:53:24;;;;;;;6.68;4.63;;;;;;;17.04;66.55;100361.56;677092;29;1332;-78
2023/08/27 00:53:45;;;;;;;5.77;4.40;;;;;;;17.02;66.59;100371.22;680869;29;1395;-77
2023/08/27 00:54:06;;;;;;;6.22;4.40;;;;;;;16.99;66.49;100353.66;687012;28;1538;-78
2023/08/27 00:54:27;;;;;;;5.57;4.10;;;;;;;17.04;66.39;100361.56;687616;28;1063;-78
2023/08/27 00:54:48;;;;;;;5.40;4.00;;;;;;;17.04;66.34;100367.72;682241;28;1205;-78
2023/08/27 00:55:09;;;;;;;4.60;4.10;;;;;;;17.12;66.52;100376.44;687472;28;1131;-78
2023/08/27 00:55:30;;;;;;;4.87;4.27;;;;;;;17.06;66.47;100365.03;687674;28;1192;-78
2023/08/27 00:55:51;;;;;;;5.20;4.40;;;;;;;17.03;66.66;100363.28;684254;28;1379;-78
2023/08/27 00:56:12;;;;;;;6.13;4.28;;;;;;;17.13;66.31;100378.19;679765;29;1103;-78
2023/08/27 00:56:33;;;;;;;14.68;4.30;;;;;;;17.03;66.49;100359.81;681600;29;1300;-79
2023/08/27 00:56:54;;;;;;;14.18;4.10;;;;;;;17.05;66.52;100372.09;682106;28;1403;-78
2023/08/27 00:57:16;;;;;;;12.65;3.92;;;;;;;16.97;66.64;100356.31;686579;28;1417;-78
2023/08/27 00:57:39;;;;;;;5.07;4.07;;;;;;;16.95;66.57;100339.63;682269;29;1368;-78
2023/08/27 00:58:00;;;;;;;4.97;4.22;;;;;;;16.94;66.63;100343.16;682296;28;1098;-81
2023/08/27 00:58:21;;;;;;;5.10;4.38;;;;;;;16.97;66.81;100350.19;683009;28;1302;-78
2023/08/27 00:58:42;;;;;;;5.05;4.30;;;;;;;16.94;66.65;100344.91;682050;28;1092;-78
2023/08/27 00:59:04;;;;;;;4.90;4.30;;;;;;;17.05;66.63;100355.38;679371;29;1254;-79
2023/08/27 00:59:26;;;;;;;4.82;4.00;;;;;;;17.03;66.88;100357.16;679361;29;1466;-79
2023/08/27 00:59:48;;;;;;;4.50;3.95;;;;;;;16.99;66.68;100354.53;680009;29;1269;-78
2023/08/27 01:00:09;;;;;;;4.85;4.07;;;;;;;16.92;66.62;100344.94;682445;29;994;-78
2023/08/27 01:00:30;;;;;;;4.60;4.03;;;;;;;16.92;66.87;100337.03;682121;29;1448;-78
2023/08/27 01:00:51;;;;;;;5.10;4.10;;;;;;;17.03;66.61;100365.06;684717;28;1084;-78
2023/08/27 01:01:14;;;;;;;4.82;3.70;;;;;;;16.99;66.80;100359.81;678810;29;1280;-78
2023/08/27 01:01:35;;;;;;;4.78;3.63;;;;;;;16.96;66.93;100354.56;681944;28;1303;-79
2023/08/27 01:01:56;;;;;;;4.70;3.70;;;;;;;16.83;66.86;100337.03;679818;29;1447;-78
2023/08/27 01:02:17;;;;;;;4.78;3.78;;;;;;;16.97;66.66;100358.94;683507;28;1967;-79
2023/08/27 01:02:39;;;;;;;4.60;3.70;;;;;;;16.93;66.84;100348.41;679016;29;1237;-78
2023/08/27 01:03:00;;;;;;;4.22;3.63;;;;;;;16.92;66.86;100355.47;682332;29;1360;-78
2023/08/27 01:03:20;;;;;;;4.75;3.78;;;;;;;16.87;66.82;100344.06;676778;29;1228;-78
2023/08/27 01:03:41;;;;;;;5.60;4.33;;;;;;;16.94;66.98;100360.72;680558;29;1262;-78
2023/08/27 01:04:02;;;;;;;5.78;4.30;;;;;;;16.90;66.92;100351.94;681223;29;1181;-78
2023/08/27 01:04:23;;;;;;;5.22;4.18;;;;;;;16.97;66.98;100361.56;682297;28;1270;-78
2023/08/27 01:04:44;;;;;;;5.72;4.05;;;;;;;16.86;67.01;100344.97;683096;28;1551;-78
2023/08/27 01:05:05;;;;;;;6.55;4.40;;;;;;;16.91;66.99;100344.94;685582;28;1306;-78
2023/08/27 01:05:27;;;;;;;6.72;4.57;;;;;;;16.92;67.22;100347.56;682120;28;1285;-78
2023/08/27 01:05:48;;;;;;;5.72;4.50;;;;;;;16.82;67.18;100330.03;681404;28;1586;-78
2023/08/27 01:06:09;;;;;;;6.00;4.40;;;;;;;16.81;67.24;100333.56;682199;28;1179;-78
2023/08/27 01:06:29;;;;;;;6.85;4.25;;;;;;;16.86;67.26;100342.31;682584;28;1654;-78
2023/08/27 01:06:50;;;;;;;6.38;3.85;;;;;;;16.94;67.39;100356.34;681096;28;1252;-78
2023/08/27 01:07:16;;;;;;;5.72;3.50;;;;;;;16.83;67.32;100334.41;679580;29;1016;-78
2023/08/27 01:07:58;;;;;;;4.60;3.63;;;;;;;16.86;67.32;100343.19;677436;29;1189;-77
2023/08/27 01:08:30;;;;;;;4.55;3.65;;;;;;;16.87;67.35;100341.44;677093;29;1304;-78
2023/08/27 01:09:03;;;;;;;5.43;4.00;;;;;;;16.87;67.40;100344.06;687191;28;1296;-78
2023/08/27 01:09:36;;;;;;;6.70;4.60;;;;;;;16.78;67.37;100323.91;684999;28;931;-78
2023/08/27 01:10:15;;;;;;;5.78;4.68;;;;;;;16.91;67.29;100351.06;679497;29;1889;-78
2023/08/27 01:10:58;;;;;;;5.97;4.68;;;;;;;16.87;67.44;100336.16;679356;28;1157;-78
2023/08/27 01:11:48;;;;;;;4.75;3.90;;;;;;;16.82;67.23;100322.13;681174;29;1111;-76
2023/08/27 01:12:22;;;;;;;5.40;4.00;;;;;;;16.89;67.30;100328.25;675483;29;1797;-78
2023/08/27 01:12:58;;;;;;;5.00;3.60;;;;;;;16.94;67.22;100337.88;682171;28;1037;-78
2023/08/27 01:13:36;;;;;;;4.40;3.50;;;;;;;16.92;67.11;100333.50;683188;28;1451;-78
2023/08/27 01:14:10;;;;;;;5.18;3.88;;;;;;;16.84;67.21;100317.75;687505;28;1286;-78
2023/08/27 01:14:33;;;;;;;6.50;3.90;;;;;;;16.77;67.19;100316.03;689895;28;2107;-77
2023/08/27 01:14:56;;;;;;;6.18;3.78;;;;;;;16.67;67.17;100296.75;684997;28;1091;-78
2023/08/27 01:15:18;;;;;;;5.13;3.90;;;;;;;16.82;67.03;100330.03;681852;29;1268;-79
2023/08/27 01:15:39;;;;;;;4.90;3.80;;;;;;;16.80;67.40;100323.91;682996;28;1122;-79
2023/08/27 01:16:02;;;;;;;5.90;3.90;;;;;;;16.65;67.07;100304.63;691800;28;1351;-79
2023/08/27 01:16:25;;;;;;;6.45;4.10;;;;;;;16.67;67.11;100305.50;684944;28;1049;-77
2023/08/27 01:16:48;;;;;;;6.43;4.05;;;;;;;16.71;67.15;100320.44;682539;28;1227;-77
2023/08/27 01:17:10;;;;;;;5.25;3.80;;;;;;;16.77;67.24;100334.47;682390;29;924;-78
2023/08/27 01:17:32;;;;;;;6.32;3.95;;;;;;;16.78;67.64;100337.06;685523;28;1203;-78
2023/08/27 01:17:55;;;;;;;6.20;4.20;;;;;;;16.75;67.31;100338.84;687571;28;1104;-78
2023/08/27 01:18:16;;;;;;;6.68;4.30;;;;;;;16.74;67.15;100326.56;684768;28;992;-77
2023/08/27 01:18:38;;;;;;;6.15;4.00;;;;;;;16.60;67.38;100308.19;678318;29;954;-78
2023/08/27 01:19:00;;;;;;;6.40;4.22;;;;;;;16.72;67.53;100329.22;679668;29;1143;-77
2023/08/27 01:19:22;;;;;;;6.50;4.40;;;;;;;16.54;67.50;100306.47;682325;29;1190;-77
2023/08/27 01:19:43;;;;;;;5.57;4.10;;;;;;;16.62;67.63;100323.09;682438;28;1207;-77
2023/08/27 01:20:05;;;;;;;4.88;3.97;;;;;;;16.59;67.71;100323.09;684191;28;1255;-77
2023/08/27 01:20:27;;;;;;;5.20;3.80;;;;;;;16.52;67.91;100317.00;677029;29;1011;-78
2023/08/27 01:20:48;;;;;;;5.05;3.60;;;;;;;16.60;67.92;100326.63;683321;28;1350;-77
2023/08/27 01:21:19;;;;;;;4.80;3.50;;;;;;;16.59;67.88;100333.63;688266;28;956;-79
2023/08/27 01:21:43;;;;;;;5.88;4.05;;;;;;;16.52;67.83;100321.38;686867;28;1133;-77
2023/08/27 01:22:04;;;;;;;6.53;4.70;;;;;;;16.54;67.96;100327.53;685290;28;1115;-77
2023/08/27 01:22:25;;;;;;;6.53;4.80;;;;;;;16.61;67.97;100336.28;685261;28;1911;-78
2023/08/27 01:22:46;;;;;;;6.15;4.60;;;;;;;16.47;68.02;100318.75;682585;28;1193;-78
2023/08/27 01:23:06;;;;;;;5.43;4.20;;;;;;;16.54;68.08;100324.91;683444;28;1215;-77
2023/08/27 01:23:27;;;;;;;5.60;4.33;;;;;;;16.48;68.08;100327.53;677358;29;1290;-78
2023/08/27 01:23:48;;;;;;;5.80;4.25;;;;;;;16.48;68.05;100323.19;684752;28;1648;-78
2023/08/27 01:24:08;;;;;;;5.60;4.20;;;;;;;16.46;68.15;100316.16;682691;28;1467;-78
2023/08/27 01:24:29;;;;;;;5.90;4.40;;;;;;;16.61;68.23;100347.69;682729;29;1418;-77
2023/08/27 01:24:51;;;;;;;6.47;4.78;;;;;;;16.51;68.19;100332.78;678888;29;1125;-78
2023/08/27 01:25:15;;;;;;;6.80;4.70;;;;;;;16.41;68.47;100318.81;679420;29;1337;-78
2023/08/27 01:25:46;;;;;;;6.45;4.68;;;;;;;16.57;68.30;100345.94;682471;28;1131;-79
2023/08/27 01:26:07;;;;;;;6.72;4.90;;;;;;;16.43;68.42;100328.44;682160;29;1781;-77
2023/08/27 01:26:54;;;;;;;7.77;5.37;;;;;;;16.43;68.52;100328.44;682485;29;1177;-78
2023/08/27 01:27:26;;;;;;;7.05;5.00;;;;;;;16.46;68.50;100338.06;677381;29;1599;-78
2023/08/27 01:28:06;;;;;;;6.88;4.93;;;;;;;16.47;68.71;100331.06;684762;28;1238;-79
2023/08/27 01:28:33;;;;;;;5.65;4.30;;;;;;;16.47;68.79;100331.06;680146;29;982;-78
2023/08/27 01:29:16;;;;;;;5.40;4.43;;;;;;;16.43;68.70;100333.69;687909;28;1916;-79
2023/08/27 01:29:45;;;;;;;6.47;4.22;;;;;;;16.41;68.93;100327.56;682852;28;2105;-78
2023/08/27 01:30:17;;;;;;;6.15;4.10;;;;;;;16.42;68.71;100331.94;685452;28;984;-78
2023/08/27 01:30:50;;;;;;;5.40;4.07;;;;;;;16.47;68.76;100338.97;683294;28;1155;-78
2023/08/27 01:31:15;;;;;;;5.32;4.10;;;;;;;16.37;68.77;100327.59;680249;29;1068;-78
2023/08/27 01:31:43;;;;;;;5.40;4.05;;;;;;;16.40;68.80;100333.72;688280;28;1001;-78
2023/08/27 01:32:13;;;;;;;9.30;4.10;;;;;;;16.48;68.70;100354.78;682564;29;1202;-78
2023/08/27 01:32:39;;;;;;;8.52;4.20;;;;;;;16.36;68.92;100336.38;682283;28;1498;-77
2023/08/27 01:33:10;;;;;;;5.10;4.57;;;;;;;16.42;68.76;100346.88;682119;29;1355;-77
2023/08/27 01:33:33;;;;;;;5.82;4.60;;;;;;;16.30;68.89;100334.63;680089;29;1014;-77
2023/08/27 01:33:56;;;;;;;6.05;4.45;;;;;;;16.29;68.81;100335.53;682608;28;1365;-78
2023/08/27 01:34:20;;;;;;;5.90;4.30;;;;;;;16.35;69.09;100348.63;681800;28;1782;-77
2023/08/27 01:34:43;;;;;;;5.38;4.28;;;;;;;16.20;68.82;100317.06;688295;28;1542;-78
2023/08/27 01:35:06;;;;;;;5.50;4.00;;;;;;;16.24;68.95;100338.13;687793;28;1104;-77
2023/08/27 01:35:29;;;;;;;6.22;4.10;;;;;;;16.28;69.06;100339.00;689047;28;1060;-79
2023/08/27 01:35:51;;;;;;;7.13;3.90;;;;;;;16.28;68.96;100347.78;684024;28;1127;-79
2023/08/27 01:36:11;;;;;;;6.70;4.10;;;;;;;16.25;69.07;100337.28;680663;28;1421;-79
2023/08/27 01:36:35;;;;;;;6.82;4.55;;;;;;;16.26;69.02;100346.03;682693;28;1430;-79
2023/08/27 01:36:58;;;;;;;6.90;4.70;;;;;;;16.30;69.30;100347.78;684985;28;1302;-78
2023/08/27 01:37:19;;;;;;;7.95;4.80;;;;;;;16.24;69.13;100342.50;680326;29;1240;-77
2023/08/27 01:37:40;;;;;;;7.35;4.60;;;;;;;16.27;69.07;100353.94;678158;29;1326;-78
2023/08/27 01:38:02;;;;;;;6.75;4.63;;;;;;;16.33;69.08;100357.44;681394;28;1230;-77
2023/08/27 01:38:23;;;;;;;6.05;4.45;;;;;;;16.32;69.22;100351.28;684537;28;1044;-78
2023/08/27 01:38:44;;;;;;;5.57;4.45;;;;;;;16.35;69.19;100366.22;681371;29;1045;-79
2023/08/27 01:39:05;;;;;;;6.05;4.63;;;;;;;16.21;69.23;100339.91;682404;29;1599;-78
2023/08/27 01:39:25;;;;;;;6.60;4.70;;;;;;;16.27;69.44;100348.69;679880;29;1229;-78
2023/08/27 01:39:46;;;;;;;6.85;4.80;;;;;;;16.32;69.43;100361.81;682522;29;1568;-78
2023/08/27 01:40:08;;;;;;;6.90;4.53;;;;;;;16.30;69.41;100358.34;682606;28;1865;-78
2023/08/27 01:40:29;;;;;;;6.53;4.43;;;;;;;16.26;69.50;100348.66;687587;28;1550;-78
2023/08/27 01:40:49;;;;;;;7.82;4.30;;;;;;;16.18;69.51;100339.00;683948;28;1443;-78
2023/08/27 01:41:10;;;;;;;6.85;4.35;;;;;;;16.23;69.61;100341.63;683965;28;1859;-78
2023/08/27 01:41:31;;;;;;;6.70;4.55;;;;;;;16.26;69.43;100351.31;685438;28;1185;-77
2023/08/27 01:41:52;;;;;;;5.60;4.45;;;;;;;16.27;69.47;100345.16;682280;29;1139;-78
2023/08/27 01:42:13;;;;;;;6.70;4.80;;;;;;;16.33;69.42;100355.69;682721;28;1269;-78
2023/08/27 01:42:37;;;;;;;7.47;4.93;;;;;;;16.28;69.55;100352.16;687854;28;1912;-78
2023/08/27 01:42:58;;;;;;;8.52;5.25;;;;;;;16.15;69.49;100328.50;682697;28;1353;-78
2023/08/27 01:43:19;;;;;;;7.22;5.07;;;;;;;16.13;69.32;100330.25;685219;28;1326;-76
2023/08/27 01:43:39;;;;;;;7.13;5.13;;;;;;;16.16;69.37;100335.50;688187;28;1102;-77
2023/08/27 01:44:00;;;;;;;5.90;4.85;;;;;;;16.20;69.48;100333.75;680040;29;1363;-77
2023/08/27 01:44:21;;;;;;;7.30;5.07;;;;;;;16.26;69.62;100351.31;687860;28;1473;-78
2023/08/27 01:44:42;;;;;;;7.20;5.32;;;;;;;16.22;69.61;100349.53;685547;28;1059;-78
2023/08/27 01:45:04;;;;;;;8.77;5.90;;;;;;;16.10;69.50;100319.72;684247;28;1199;-77
2023/08/27 01:45:26;;;;;;;7.20;5.70;;;;;;;16.18;69.65;100340.78;679719;29;1627;-78
2023/08/27 01:45:46;;;;;;;7.38;5.57;;;;;;;16.20;69.88;100330.22;686578;28;1340;-78
2023/08/27 01:46:07;;;;;;;8.17;5.23;;;;;;;16.10;69.73;100324.97;693377;28;1159;-78
2023/08/27 01:46:28;;;;;;;8.48;5.45;;;;;;;16.06;69.48;100314.47;682804;28;1184;-77
2023/08/27 01:46:48;;;;;;;6.93;5.40;;;;;;;16.09;69.67;100322.38;683660;28;1240;-78
2023/08/27 01:47:10;;;;;;;6.60;5.70;;;;;;;16.12;69.67;100328.47;685361;28;1282;-77
2023/08/27 01:47:31;;;;;;;6.65;5.50;;;;;;;16.18;69.68;100336.38;682646;28;1576;-78